New Millport, Pennsylvania
Current Conditions -  °F | °C
As of 2:54 AM on Tuesday 27 Jan 2015 (Local Time) from KFIG Reporting Station
Light Snow Light Snow  
Wind Chill: 10°   Ceiling: 6500
Heat Index: 17°   Visibility: 9mi
Dew Point: 14°   Wind: 5mph
Humidity: 88%   Direction: 320°NW
Pressure: 29.76"   Gusts: NA
Location:  40.89°N, 78.54°W
Report Text: KFIG 270754Z AUTO 32004KT 9SM -SN OVC065 M08/M10 A2976 RMK AO2 SLP101 P0000 T10831100
Loading
Personal Weather Stations






























Interactive Weather Map New forecast layout! Learn more

10-Day Weather Forecast

Advertisements
Track Severe Weather on mobile